sensor_id;sensor_type;location;lat;lon;timestamp;temperature;humidity
46976;DHT22;32724;51.094;6.996;2024-01-30T00:01:05;8.60;99.90
46976;DHT22;32724;51.094;6.996;2024-01-30T00:03:31;8.60;99.90
46976;DHT22;32724;51.094;6.996;2024-01-30T00:05:56;8.60;99.90
46976;DHT22;32724;51.094;6.996;2024-01-30T00:08:22;8.60;99.90
46976;DHT22;32724;51.094;6.996;2024-01-30T00:10:48;8.60;99.90
46976;DHT22;32724;51.094;6.996;2024-01-30T00:13:13;8.50;99.90
46976;DHT22;32724;51.094;6.996;2024-01-30T00:15:41;8.50;99.90
46976;DHT22;32724;51.094;6.996;2024-01-30T00:18:07;8.50;99.90
46976;DHT22;32724;51.094;6.996;2024-01-30T00:20:32;8.50;99.90
46976;DHT22;32724;51.094;6.996;2024-01-30T00:22:58;8.40;99.90
46976;DHT22;32724;51.094;6.996;2024-01-30T00:25:23;8.40;99.90
46976;DHT22;32724;51.094;6.996;2024-01-30T00:27:49;8.40;99.90
46976;DHT22;32724;51.094;6.996;2024-01-30T00:30:15;8.20;99.90
46976;DHT22;32724;51.094;6.996;2024-01-30T00:32:40;8.00;99.90
46976;DHT22;32724;51.094;6.996;2024-01-30T00:35:06;8.00;99.90
46976;DHT22;32724;51.094;6.996;2024-01-30T00:37:31;8.00;99.90
46976;DHT22;32724;51.094;6.996;2024-01-30T00:39:57;7.90;99.90
46976;DHT22;32724;51.094;6.996;2024-01-30T00:42:23;8.00;99.90
46976;DHT22;32724;51.094;6.996;2024-01-30T00:44:50;8.10;99.90
46976;DHT22;32724;51.094;6.996;2024-01-30T00:47:16;8.10;99.90
46976;DHT22;32724;51.094;6.996;2024-01-30T00:49:42;8.10;99.90
46976;DHT22;32724;51.094;6.996;2024-01-30T00:52:07;8.10;99.90
46976;DHT22;32724;51.094;6.996;2024-01-30T00:54:33;8.10;99.90
46976;DHT22;32724;51.094;6.996;2024-01-30T00:56:58;8.10;99.90
46976;DHT22;32724;51.094;6.996;2024-01-30T00:59:24;8.10;99.90
46976;DHT22;32724;51.094;6.996;2024-01-30T01:01:50;8.10;99.90
46976;DHT22;32724;51.094;6.996;2024-01-30T01:04:16;8.10;99.90
46976;DHT22;32724;51.094;6.996;2024-01-30T01:06:42;8.00;99.90
46976;DHT22;32724;51.094;6.996;2024-01-30T01:09:11;8.10;99.90
46976;DHT22;32724;51.094;6.996;2024-01-30T01:11:37;8.10;99.90
46976;DHT22;32724;51.094;6.996;2024-01-30T01:14:03;8.00;99.90
46976;DHT22;32724;51.094;6.996;2024-01-30T01:16:29;8.00;99.90
46976;DHT22;32724;51.094;6.996;2024-01-30T01:18:55;7.90;99.90
46976;DHT22;32724;51.094;6.996;2024-01-30T01:21:20;7.90;99.90
46976;DHT22;32724;51.094;6.996;2024-01-30T01:23:46;7.90;99.90
46976;DHT22;32724;51.094;6.996;2024-01-30T01:26:11;7.90;99.90
46976;DHT22;32724;51.094;6.996;2024-01-30T01:28:40;7.70;99.90
46976;DHT22;32724;51.094;6.996;2024-01-30T01:31:06;7.80;99.90
46976;DHT22;32724;51.094;6.996;2024-01-30T01:33:32;7.80;99.90
46976;DHT22;32724;51.094;6.996;2024-01-30T01:35:59;7.80;99.90
46976;DHT22;32724;51.094;6.996;2024-01-30T01:38:25;7.80;99.90
46976;DHT22;32724;51.094;6.996;2024-01-30T01:40:50;7.70;99.90
46976;DHT22;32724;51.094;6.996;2024-01-30T01:43:16;7.80;99.90
46976;DHT22;32724;51.094;6.996;2024-01-30T01:45:42;7.80;99.90
46976;DHT22;32724;51.094;6.996;2024-01-30T01:48:08;7.80;99.90
46976;DHT22;32724;51.094;6.996;2024-01-30T01:50:35;7.90;99.90
46976;DHT22;32724;51.094;6.996;2024-01-30T01:53:01;7.60;99.90
46976;DHT22;32724;51.094;6.996;2024-01-30T01:55:29;7.50;99.90
46976;DHT22;32724;51.094;6.996;2024-01-30T01:57:55;7.60;99.90
46976;DHT22;32724;51.094;6.996;2024-01-30T02:00:21;7.50;99.90
46976;DHT22;32724;51.094;6.996;2024-01-30T02:02:47;7.50;99.90
46976;DHT22;32724;51.094;6.996;2024-01-30T02:05:13;7.50;99.90
46976;DHT22;32724;51.094;6.996;2024-01-30T02:07:39;7.50;99.90
46976;DHT22;32724;51.094;6.996;2024-01-30T02:10:05;7.50;99.90
46976;DHT22;32724;51.094;6.996;2024-01-30T02:12:32;7.50;99.90
46976;DHT22;32724;51.094;6.996;2024-01-30T02:14:58;7.60;99.90
46976;DHT22;32724;51.094;6.996;2024-01-30T02:17:24;7.70;99.90
46976;DHT22;32724;51.094;6.996;2024-01-30T02:19:49;7.80;99.90
46976;DHT22;32724;51.094;6.996;2024-01-30T02:22:15;7.90;99.90
46976;DHT22;32724;51.094;6.996;2024-01-30T02:24:41;7.90;99.90
46976;DHT22;32724;51.094;6.996;2024-01-30T02:27:06;7.90;99.90
46976;DHT22;32724;51.094;6.996;2024-01-30T02:29:32;7.90;99.90
46976;DHT22;32724;51.094;6.996;2024-01-30T02:31:57;7.90;99.90
46976;DHT22;32724;51.094;6.996;2024-01-30T02:34:24;7.80;99.90
46976;DHT22;32724;51.094;6.996;2024-01-30T02:36:50;7.60;99.90
46976;DHT22;32724;51.094;6.996;2024-01-30T02:39:15;7.50;99.90
46976;DHT22;32724;51.094;6.996;2024-01-30T02:41:41;7.50;99.90
46976;DHT22;32724;51.094;6.996;2024-01-30T02:44:06;7.30;99.90
46976;DHT22;32724;51.094;6.996;2024-01-30T02:46:32;7.30;99.90
46976;DHT22;32724;51.094;6.996;2024-01-30T02:48:58;7.40;99.90
46976;DHT22;32724;51.094;6.996;2024-01-30T02:51:23;7.40;99.90
46976;DHT22;32724;51.094;6.996;2024-01-30T02:53:49;7.50;99.90
46976;DHT22;32724;51.094;6.996;2024-01-30T02:56:14;7.50;99.90
46976;DHT22;32724;51.094;6.996;2024-01-30T02:58:40;7.50;99.90
46976;DHT22;32724;51.094;6.996;2024-01-30T03:01:06;7.70;99.90
46976;DHT22;32724;51.094;6.996;2024-01-30T03:03:32;7.80;99.90
46976;DHT22;32724;51.094;6.996;2024-01-30T03:05:59;7.80;99.90
46976;DHT22;32724;51.094;6.996;2024-01-30T03:08:25;7.80;99.90
46976;DHT22;32724;51.094;6.996;2024-01-30T03:10:50;7.80;99.90
46976;DHT22;32724;51.094;6.996;2024-01-30T03:13:16;7.80;99.90
46976;DHT22;32724;51.094;6.996;2024-01-30T03:15:41;7.70;99.90
46976;DHT22;32724;51.094;6.996;2024-01-30T03:18:07;7.80;99.90
46976;DHT22;32724;51.094;6.996;2024-01-30T03:20:32;7.80;99.90
46976;DHT22;32724;51.094;6.996;2024-01-30T03:22:59;7.80;99.90
46976;DHT22;32724;51.094;6.996;2024-01-30T03:25:25;7.80;99.90
46976;DHT22;32724;51.094;6.996;2024-01-30T03:27:51;7.90;99.90
46976;DHT22;32724;51.094;6.996;2024-01-30T03:30:17;7.90;99.90
46976;DHT22;32724;51.094;6.996;2024-01-30T03:32:43;7.90;99.90
46976;DHT22;32724;51.094;6.996;2024-01-30T03:35:09;8.00;99.90
46976;DHT22;32724;51.094;6.996;2024-01-30T03:37:35;8.10;99.90
46976;DHT22;32724;51.094;6.996;2024-01-30T03:40:02;8.10;99.90
46976;DHT22;32724;51.094;6.996;2024-01-30T03:42:28;7.80;99.90
46976;DHT22;32724;51.094;6.996;2024-01-30T03:44:53;7.90;99.90
46976;DHT22;32724;51.094;6.996;2024-01-30T03:47:20;7.90;99.90
46976;DHT22;32724;51.094;6.996;2024-01-30T03:49:46;7.90;99.90
46976;DHT22;32724;51.094;6.996;2024-01-30T03:52:12;8.00;99.90
46976;DHT22;32724;51.094;6.996;2024-01-30T03:54:37;8.10;99.90
46976;DHT22;32724;51.094;6.996;2024-01-30T03:57:03;8.00;99.90
46976;DHT22;32724;51.094;6.996;2024-01-30T03:59:29;8.00;99.90
46976;DHT22;32724;51.094;6.996;2024-01-30T04:01:54;7.90;99.90
46976;DHT22;32724;51.094;6.996;2024-01-30T04:04:20;7.80;99.90
46976;DHT22;32724;51.094;6.996;2024-01-30T04:06:46;7.70;99.90
46976;DHT22;32724;51.094;6.996;2024-01-30T04:09:12;7.60;99.90
46976;DHT22;32724;51.094;6.996;2024-01-30T04:11:39;7.60;99.90
46976;DHT22;32724;51.094;6.996;2024-01-30T04:14:04;7.60;99.90
46976;DHT22;32724;51.094;6.996;2024-01-30T04:16:30;7.80;99.90
46976;DHT22;32724;51.094;6.996;2024-01-30T04:18:56;7.90;99.90
46976;DHT22;32724;51.094;6.996;2024-01-30T04:21:21;8.00;99.90
46976;DHT22;32724;51.094;6.996;2024-01-30T04:23:48;8.00;99.90
46976;DHT22;32724;51.094;6.996;2024-01-30T04:26:14;8.10;99.90
46976;DHT22;32724;51.094;6.996;2024-01-30T04:28:41;8.00;99.90
46976;DHT22;32724;51.094;6.996;2024-01-30T04:31:07;8.00;99.90
46976;DHT22;32724;51.094;6.996;2024-01-30T04:33:33;8.00;99.90
46976;DHT22;32724;51.094;6.996;2024-01-30T04:35:59;7.80;99.90
46976;DHT22;32724;51.094;6.996;2024-01-30T04:38:25;7.70;99.90
46976;DHT22;32724;51.094;6.996;2024-01-30T04:40:50;7.60;99.90
46976;DHT22;32724;51.094;6.996;2024-01-30T04:43:16;7.50;99.90
46976;DHT22;32724;51.094;6.996;2024-01-30T04:45:42;7.40;99.90
46976;DHT22;32724;51.094;6.996;2024-01-30T04:48:07;7.30;99.90
46976;DHT22;32724;51.094;6.996;2024-01-30T04:50:33;7.30;99.90
46976;DHT22;32724;51.094;6.996;2024-01-30T04:52:58;7.30;99.90
46976;DHT22;32724;51.094;6.996;2024-01-30T04:55:24;7.30;99.90
46976;DHT22;32724;51.094;6.996;2024-01-30T04:57:50;7.30;99.90
46976;DHT22;32724;51.094;6.996;2024-01-30T05:00:16;7.30;99.90
46976;DHT22;32724;51.094;6.996;2024-01-30T05:02:41;7.40;99.90
46976;DHT22;32724;51.094;6.996;2024-01-30T05:05:07;7.30;99.90
46976;DHT22;32724;51.094;6.996;2024-01-30T05:07:33;7.30;99.90
46976;DHT22;32724;51.094;6.996;2024-01-30T05:09:59;7.20;99.90
46976;DHT22;32724;51.094;6.996;2024-01-30T05:12:25;7.20;99.90
46976;DHT22;32724;51.094;6.996;2024-01-30T05:14:50;7.30;99.90
46976;DHT22;32724;51.094;6.996;2024-01-30T05:17:16;7.30;99.90
46976;DHT22;32724;51.094;6.996;2024-01-30T05:19:43;7.40;99.90
46976;DHT22;32724;51.094;6.996;2024-01-30T05:22:09;7.30;99.90
46976;DHT22;32724;51.094;6.996;2024-01-30T05:24:35;7.40;99.90
46976;DHT22;32724;51.094;6.996;2024-01-30T05:27:00;7.50;99.90
46976;DHT22;32724;51.094;6.996;2024-01-30T05:29:27;7.60;99.90
46976;DHT22;32724;51.094;6.996;2024-01-30T05:31:52;7.70;99.90
46976;DHT22;32724;51.094;6.996;2024-01-30T05:34:18;7.70;99.90
46976;DHT22;32724;51.094;6.996;2024-01-30T05:36:44;7.70;99.90
46976;DHT22;32724;51.094;6.996;2024-01-30T05:39:09;7.70;99.90
46976;DHT22;32724;51.094;6.996;2024-01-30T05:41:35;7.70;99.90
46976;DHT22;32724;51.094;6.996;2024-01-30T05:44:01;7.70;99.90
46976;DHT22;32724;51.094;6.996;2024-01-30T05:46:27;7.50;99.90
46976;DHT22;32724;51.094;6.996;2024-01-30T05:48:52;7.40;99.90
46976;DHT22;32724;51.094;6.996;2024-01-30T05:51:18;7.40;99.90
46976;DHT22;32724;51.094;6.996;2024-01-30T05:53:44;7.40;99.90
46976;DHT22;32724;51.094;6.996;2024-01-30T05:56:09;7.40;99.90
46976;DHT22;32724;51.094;6.996;2024-01-30T05:58:35;7.40;99.90
46976;DHT22;32724;51.094;6.996;2024-01-30T06:01:03;7.50;99.90
46976;DHT22;32724;51.094;6.996;2024-01-30T06:03:28;7.40;99.90
46976;DHT22;32724;51.094;6.996;2024-01-30T06:05:54;7.40;99.90
46976;DHT22;32724;51.094;6.996;2024-01-30T06:08:20;7.50;99.90
46976;DHT22;32724;51.094;6.996;2024-01-30T06:10:45;7.40;99.90
46976;DHT22;32724;51.094;6.996;2024-01-30T06:13:11;7.50;99.90
46976;DHT22;32724;51.094;6.996;2024-01-30T06:15:36;7.50;99.90
46976;DHT22;32724;51.094;6.996;2024-01-30T06:18:02;7.50;99.90
46976;DHT22;32724;51.094;6.996;2024-01-30T06:20:28;7.60;99.90
46976;DHT22;32724;51.094;6.996;2024-01-30T06:22:53;7.60;99.90
46976;DHT22;32724;51.094;6.996;2024-01-30T06:25:19;7.60;99.90
46976;DHT22;32724;51.094;6.996;2024-01-30T06:27:45;7.60;99.90
46976;DHT22;32724;51.094;6.996;2024-01-30T06:30:11;7.60;99.90
46976;DHT22;32724;51.094;6.996;2024-01-30T06:32:36;7.70;99.90
46976;DHT22;32724;51.094;6.996;2024-01-30T06:35:02;7.90;99.90
46976;DHT22;32724;51.094;6.996;2024-01-30T06:37:28;7.90;99.90
46976;DHT22;32724;51.094;6.996;2024-01-30T06:39:54;7.90;99.90
46976;DHT22;32724;51.094;6.996;2024-01-30T06:42:19;7.90;99.90
46976;DHT22;32724;51.094;6.996;2024-01-30T06:44:45;7.90;99.90
46976;DHT22;32724;51.094;6.996;2024-01-30T06:47:10;8.00;99.90
46976;DHT22;32724;51.094;6.996;2024-01-30T06:49:36;8.00;99.90
46976;DHT22;32724;51.094;6.996;2024-01-30T06:52:07;8.00;99.90
46976;DHT22;32724;51.094;6.996;2024-01-30T06:54:33;7.70;99.90
46976;DHT22;32724;51.094;6.996;2024-01-30T06:56:59;7.70;99.90
46976;DHT22;32724;51.094;6.996;2024-01-30T06:59:25;7.60;99.90
46976;DHT22;32724;51.094;6.996;2024-01-30T07:01:50;7.60;99.90
46976;DHT22;32724;51.094;6.996;2024-01-30T07:04:16;7.60;99.90
46976;DHT22;32724;51.094;6.996;2024-01-30T07:06:42;7.60;99.90
46976;DHT22;32724;51.094;6.996;2024-01-30T07:09:08;7.60;99.90
46976;DHT22;32724;51.094;6.996;2024-01-30T07:11:34;7.60;99.90
46976;DHT22;32724;51.094;6.996;2024-01-30T07:13:59;7.60;99.90
46976;DHT22;32724;51.094;6.996;2024-01-30T07:16:25;7.70;99.90
46976;DHT22;32724;51.094;6.996;2024-01-30T07:18:51;7.70;99.90
46976;DHT22;32724;51.094;6.996;2024-01-30T07:21:16;7.70;99.90
46976;DHT22;32724;51.094;6.996;2024-01-30T07:23:42;7.70;99.90
46976;DHT22;32724;51.094;6.996;2024-01-30T07:26:08;7.60;99.90
46976;DHT22;32724;51.094;6.996;2024-01-30T07:28:34;7.70;99.90
46976;DHT22;32724;51.094;6.996;2024-01-30T07:31:03;7.70;99.90
46976;DHT22;32724;51.094;6.996;2024-01-30T07:33:29;7.70;99.90
46976;DHT22;32724;51.094;6.996;2024-01-30T07:35:54;7.90;99.90
46976;DHT22;32724;51.094;6.996;2024-01-30T07:38:20;8.00;99.90
46976;DHT22;32724;51.094;6.996;2024-01-30T07:40:46;8.10;99.90
46976;DHT22;32724;51.094;6.996;2024-01-30T07:43:12;8.20;99.90
46976;DHT22;32724;51.094;6.996;2024-01-30T07:45:38;8.20;99.90
46976;DHT22;32724;51.094;6.996;2024-01-30T07:48:05;8.30;99.90
46976;DHT22;32724;51.094;6.996;2024-01-30T07:50:31;8.30;99.90
46976;DHT22;32724;51.094;6.996;2024-01-30T07:52:57;8.30;99.90
46976;DHT22;32724;51.094;6.996;2024-01-30T07:55:23;8.30;99.90
46976;DHT22;32724;51.094;6.996;2024-01-30T07:57:52;8.40;99.90
46976;DHT22;32724;51.094;6.996;2024-01-30T08:00:21;8.10;99.90
46976;DHT22;32724;51.094;6.996;2024-01-30T08:02:47;8.20;99.90
46976;DHT22;32724;51.094;6.996;2024-01-30T08:05:13;8.20;99.90
46976;DHT22;32724;51.094;6.996;2024-01-30T08:07:41;8.40;99.90
46976;DHT22;32724;51.094;6.996;2024-01-30T08:10:08;8.10;99.90
46976;DHT22;32724;51.094;6.996;2024-01-30T08:12:34;8.10;99.90
46976;DHT22;32724;51.094;6.996;2024-01-30T08:14:59;8.10;99.90
46976;DHT22;32724;51.094;6.996;2024-01-30T08:17:25;8.10;99.90
46976;DHT22;32724;51.094;6.996;2024-01-30T08:19:50;8.10;99.90
46976;DHT22;32724;51.094;6.996;2024-01-30T08:22:16;8.10;99.90
46976;DHT22;32724;51.094;6.996;2024-01-30T08:24:41;8.20;99.90
46976;DHT22;32724;51.094;6.996;2024-01-30T08:27:07;8.20;99.90
46976;DHT22;32724;51.094;6.996;2024-01-30T08:29:37;8.30;99.90
46976;DHT22;32724;51.094;6.996;2024-01-30T08:32:05;8.40;99.90
46976;DHT22;32724;51.094;6.996;2024-01-30T08:34:31;8.40;99.90
46976;DHT22;32724;51.094;6.996;2024-01-30T08:36:56;8.50;99.90
46976;DHT22;32724;51.094;6.996;2024-01-30T08:39:22;8.60;99.90
46976;DHT22;32724;51.094;6.996;2024-01-30T08:41:47;8.60;99.90
46976;DHT22;32724;51.094;6.996;2024-01-30T08:44:13;8.50;99.90
46976;DHT22;32724;51.094;6.996;2024-01-30T08:46:38;8.70;99.90
46976;DHT22;32724;51.094;6.996;2024-01-30T08:49:04;8.70;99.90
46976;DHT22;32724;51.094;6.996;2024-01-30T08:51:30;8.80;99.90
46976;DHT22;32724;51.094;6.996;2024-01-30T08:53:56;8.90;99.90
46976;DHT22;32724;51.094;6.996;2024-01-30T08:56:21;8.90;99.90
46976;DHT22;32724;51.094;6.996;2024-01-30T08:58:47;9.00;99.90
46976;DHT22;32724;51.094;6.996;2024-01-30T09:01:13;9.10;99.90
46976;DHT22;32724;51.094;6.996;2024-01-30T09:03:39;9.20;99.90
46976;DHT22;32724;51.094;6.996;2024-01-30T09:06:10;9.20;99.90
46976;DHT22;32724;51.094;6.996;2024-01-30T09:08:36;9.30;99.90
46976;DHT22;32724;51.094;6.996;2024-01-30T09:11:15;9.20;99.90
46976;DHT22;32724;51.094;6.996;2024-01-30T09:13:41;8.90;99.90
46976;DHT22;32724;51.094;6.996;2024-01-30T09:16:07;8.90;99.90
46976;DHT22;32724;51.094;6.996;2024-01-30T09:18:33;8.90;99.90
46976;DHT22;32724;51.094;6.996;2024-01-30T09:20:59;9.00;99.90
46976;DHT22;32724;51.094;6.996;2024-01-30T09:23:25;9.20;99.90
46976;DHT22;32724;51.094;6.996;2024-01-30T09:25:50;9.30;99.90
46976;DHT22;32724;51.094;6.996;2024-01-30T09:28:17;9.40;99.90
46976;DHT22;32724;51.094;6.996;2024-01-30T09:30:43;9.50;99.90
46976;DHT22;32724;51.094;6.996;2024-01-30T09:33:09;9.70;99.90
46976;DHT22;32724;51.094;6.996;2024-01-30T09:35:35;9.80;99.90
46976;DHT22;32724;51.094;6.996;2024-01-30T09:38:02;10.00;99.90
46976;DHT22;32724;51.094;6.996;2024-01-30T09:40:28;10.10;99.90
46976;DHT22;32724;51.094;6.996;2024-01-30T09:42:54;10.20;99.90
46976;DHT22;32724;51.094;6.996;2024-01-30T09:45:24;10.30;99.90
46976;DHT22;32724;51.094;6.996;2024-01-30T09:47:49;10.30;99.90
46976;DHT22;32724;51.094;6.996;2024-01-30T09:50:15;10.40;99.90
46976;DHT22;32724;51.094;6.996;2024-01-30T09:52:48;10.40;99.90
46976;DHT22;32724;51.094;6.996;2024-01-30T09:55:15;10.40;99.90
46976;DHT22;32724;51.094;6.996;2024-01-30T09:57:41;10.40;99.90
46976;DHT22;32724;51.094;6.996;2024-01-30T10:00:07;10.40;99.90
46976;DHT22;32724;51.094;6.996;2024-01-30T10:02:34;10.50;99.90
46976;DHT22;32724;51.094;6.996;2024-01-30T10:05:00;10.30;99.90
46976;DHT22;32724;51.094;6.996;2024-01-30T10:07:26;10.00;99.90
46976;DHT22;32724;51.094;6.996;2024-01-30T10:09:53;10.00;99.90
46976;DHT22;32724;51.094;6.996;2024-01-30T10:12:19;10.00;99.90
46976;DHT22;32724;51.094;6.996;2024-01-30T10:14:44;10.10;99.90
46976;DHT22;32724;51.094;6.996;2024-01-30T10:17:11;10.20;99.90
46976;DHT22;32724;51.094;6.996;2024-01-30T10:19:38;10.30;99.90
46976;DHT22;32724;51.094;6.996;2024-01-30T10:22:04;10.40;99.90
46976;DHT22;32724;51.094;6.996;2024-01-30T10:24:31;10.40;99.90
46976;DHT22;32724;51.094;6.996;2024-01-30T10:26:56;10.50;99.90
46976;DHT22;32724;51.094;6.996;2024-01-30T10:29:22;10.40;99.90
46976;DHT22;32724;51.094;6.996;2024-01-30T10:32:01;10.40;99.90
46976;DHT22;32724;51.094;6.996;2024-01-30T10:34:27;10.50;99.90
46976;DHT22;32724;51.094;6.996;2024-01-30T10:37:11;10.40;99.90
46976;DHT22;32724;51.094;6.996;2024-01-30T10:39:44;10.80;99.90
46976;DHT22;32724;51.094;6.996;2024-01-30T10:42:17;11.00;99.90
46976;DHT22;32724;51.094;6.996;2024-01-30T10:45:05;11.20;99.90
46976;DHT22;32724;51.094;6.996;2024-01-30T10:47:35;11.30;99.90
46976;DHT22;32724;51.094;6.996;2024-01-30T10:50:04;11.40;99.90
46976;DHT22;32724;51.094;6.996;2024-01-30T10:52:30;11.50;99.90
46976;DHT22;32724;51.094;6.996;2024-01-30T10:54:57;11.40;99.90
46976;DHT22;32724;51.094;6.996;2024-01-30T10:57:24;11.40;99.90
46976;DHT22;32724;51.094;6.996;2024-01-30T10:59:57;11.70;99.90
46976;DHT22;32724;51.094;6.996;2024-01-30T11:02:24;11.70;99.90
46976;DHT22;32724;51.094;6.996;2024-01-30T11:04:50;11.70;99.90
46976;DHT22;32724;51.094;6.996;2024-01-30T11:07:25;11.80;99.90
46976;DHT22;32724;51.094;6.996;2024-01-30T11:09:51;11.80;99.90
46976;DHT22;32724;51.094;6.996;2024-01-30T11:12:22;11.80;99.90
46976;DHT22;32724;51.094;6.996;2024-01-30T11:14:48;11.80;99.90
46976;DHT22;32724;51.094;6.996;2024-01-30T11:17:14;11.80;99.90
46976;DHT22;32724;51.094;6.996;2024-01-30T11:19:41;11.90;99.90
46976;DHT22;32724;51.094;6.996;2024-01-30T11:22:07;12.00;99.90
46976;DHT22;32724;51.094;6.996;2024-01-30T11:24:40;12.10;99.90
46976;DHT22;32724;51.094;6.996;2024-01-30T11:27:09;12.20;99.90
46976;DHT22;32724;51.094;6.996;2024-01-30T11:29:40;12.30;99.90
46976;DHT22;32724;51.094;6.996;2024-01-30T11:32:05;12.40;99.90
46976;DHT22;32724;51.094;6.996;2024-01-30T11:34:32;12.40;99.90
46976;DHT22;32724;51.094;6.996;2024-01-30T11:37:03;12.40;99.90
46976;DHT22;32724;51.094;6.996;2024-01-30T11:39:35;12.50;99.90
46976;DHT22;32724;51.094;6.996;2024-01-30T11:42:03;12.60;99.90
46976;DHT22;32724;51.094;6.996;2024-01-30T11:44:30;12.10;99.90
46976;DHT22;32724;51.094;6.996;2024-01-30T11:46:56;11.80;99.90
46976;DHT22;32724;51.094;6.996;2024-01-30T11:49:22;11.70;99.90
46976;DHT22;32724;51.094;6.996;2024-01-30T11:51:48;11.60;99.90
46976;DHT22;32724;51.094;6.996;2024-01-30T11:54:15;11.90;99.90
46976;DHT22;32724;51.094;6.996;2024-01-30T11:56:42;12.20;99.90
46976;DHT22;32724;51.094;6.996;2024-01-30T11:59:08;12.40;99.90
46976;DHT22;32724;51.094;6.996;2024-01-30T12:01:34;12.60;99.90
46976;DHT22;32724;51.094;6.996;2024-01-30T12:04:00;12.60;99.90
46976;DHT22;32724;51.094;6.996;2024-01-30T12:06:25;12.90;99.90
46976;DHT22;32724;51.094;6.996;2024-01-30T12:08:58;12.90;99.90
46976;DHT22;32724;51.094;6.996;2024-01-30T12:11:25;13.00;99.90
46976;DHT22;32724;51.094;6.996;2024-01-30T12:13:52;13.00;99.90
46976;DHT22;32724;51.094;6.996;2024-01-30T12:16:19;13.10;99.90
46976;DHT22;32724;51.094;6.996;2024-01-30T12:18:45;13.10;99.90
46976;DHT22;32724;51.094;6.996;2024-01-30T12:21:10;13.20;99.90
46976;DHT22;32724;51.094;6.996;2024-01-30T12:23:36;13.40;99.90
46976;DHT22;32724;51.094;6.996;2024-01-30T12:26:03;13.40;99.90
46976;DHT22;32724;51.094;6.996;2024-01-30T12:28:31;13.20;99.90
46976;DHT22;32724;51.094;6.996;2024-01-30T12:30:57;13.20;99.90
46976;DHT22;32724;51.094;6.996;2024-01-30T12:33:27;13.10;99.90
46976;DHT22;32724;51.094;6.996;2024-01-30T12:35:54;13.00;99.90
46976;DHT22;32724;51.094;6.996;2024-01-30T12:38:19;13.00;99.90
46976;DHT22;32724;51.094;6.996;2024-01-30T12:40:45;13.00;99.90
46976;DHT22;32724;51.094;6.996;2024-01-30T12:43:13;12.80;99.90
46976;DHT22;32724;51.094;6.996;2024-01-30T12:45:39;12.90;99.90
46976;DHT22;32724;51.094;6.996;2024-01-30T12:48:06;12.90;99.90
46976;DHT22;32724;51.094;6.996;2024-01-30T12:50:33;13.00;99.90
46976;DHT22;32724;51.094;6.996;2024-01-30T12:52:58;13.00;99.90
46976;DHT22;32724;51.094;6.996;2024-01-30T12:55:24;12.90;99.90
46976;DHT22;32724;51.094;6.996;2024-01-30T12:57:52;12.90;99.90
46976;DHT22;32724;51.094;6.996;2024-01-30T13:00:17;12.80;99.90
46976;DHT22;32724;51.094;6.996;2024-01-30T13:02:43;12.70;99.90
46976;DHT22;32724;51.094;6.996;2024-01-30T13:05:10;12.60;99.90
46976;DHT22;32724;51.094;6.996;2024-01-30T13:07:35;12.60;99.90
46976;DHT22;32724;51.094;6.996;2024-01-30T13:10:01;12.60;99.90
46976;DHT22;32724;51.094;6.996;2024-01-30T13:12:30;12.40;99.90
46976;DHT22;32724;51.094;6.996;2024-01-30T13:14:55;12.40;99.90
46976;DHT22;32724;51.094;6.996;2024-01-30T13:17:21;12.40;99.90
46976;DHT22;32724;51.094;6.996;2024-01-30T13:19:46;12.40;99.90
46976;DHT22;32724;51.094;6.996;2024-01-30T13:22:15;12.40;99.90
46976;DHT22;32724;51.094;6.996;2024-01-30T13:24:40;12.40;99.90
46976;DHT22;32724;51.094;6.996;2024-01-30T13:27:06;12.40;99.90
46976;DHT22;32724;51.094;6.996;2024-01-30T13:29:32;12.40;99.90
46976;DHT22;32724;51.094;6.996;2024-01-30T13:31:58;12.30;99.90
46976;DHT22;32724;51.094;6.996;2024-01-30T13:34:24;12.30;99.90
46976;DHT22;32724;51.094;6.996;2024-01-30T13:36:50;12.30;99.90
46976;DHT22;32724;51.094;6.996;2024-01-30T13:39:16;12.30;99.90
46976;DHT22;32724;51.094;6.996;2024-01-30T13:41:42;12.30;99.90
46976;DHT22;32724;51.094;6.996;2024-01-30T13:44:08;12.30;99.90
46976;DHT22;32724;51.094;6.996;2024-01-30T13:46:35;12.40;99.90
46976;DHT22;32724;51.094;6.996;2024-01-30T13:49:01;12.30;99.90
46976;DHT22;32724;51.094;6.996;2024-01-30T13:51:27;12.30;99.90
46976;DHT22;32724;51.094;6.996;2024-01-30T13:53:53;12.30;99.90
46976;DHT22;32724;51.094;6.996;2024-01-30T13:56:19;12.30;99.90
46976;DHT22;32724;51.094;6.996;2024-01-30T13:58:47;12.30;99.90
46976;DHT22;32724;51.094;6.996;2024-01-30T14:01:13;12.20;99.90
46976;DHT22;32724;51.094;6.996;2024-01-30T14:03:38;11.70;99.90
46976;DHT22;32724;51.094;6.996;2024-01-30T14:06:04;11.60;99.90
46976;DHT22;32724;51.094;6.996;2024-01-30T14:08:30;11.40;99.90
46976;DHT22;32724;51.094;6.996;2024-01-30T14:10:55;11.40;99.90
46976;DHT22;32724;51.094;6.996;2024-01-30T14:13:21;11.50;99.90
46976;DHT22;32724;51.094;6.996;2024-01-30T14:15:48;11.70;99.90
46976;DHT22;32724;51.094;6.996;2024-01-30T14:18:15;11.80;99.90
46976;DHT22;32724;51.094;6.996;2024-01-30T14:20:40;12.00;99.90
46976;DHT22;32724;51.094;6.996;2024-01-30T14:23:06;12.10;99.90
46976;DHT22;32724;51.094;6.996;2024-01-30T14:25:32;12.10;99.90
46976;DHT22;32724;51.094;6.996;2024-01-30T14:27:58;12.10;99.90
46976;DHT22;32724;51.094;6.996;2024-01-30T14:30:23;12.10;99.90
46976;DHT22;32724;51.094;6.996;2024-01-30T14:32:49;12.20;99.90
46976;DHT22;32724;51.094;6.996;2024-01-30T14:35:15;12.30;99.90
46976;DHT22;32724;51.094;6.996;2024-01-30T14:37:41;12.20;99.90
46976;DHT22;32724;51.094;6.996;2024-01-30T14:40:07;12.30;99.90
46976;DHT22;32724;51.094;6.996;2024-01-30T14:42:33;12.30;99.90
46976;DHT22;32724;51.094;6.996;2024-01-30T14:44:58;12.30;99.90
46976;DHT22;32724;51.094;6.996;2024-01-30T14:47:24;12.40;99.90
46976;DHT22;32724;51.094;6.996;2024-01-30T14:49:51;12.40;99.90
46976;DHT22;32724;51.094;6.996;2024-01-30T14:52:17;12.30;99.90
46976;DHT22;32724;51.094;6.996;2024-01-30T14:54:43;12.30;99.90
46976;DHT22;32724;51.094;6.996;2024-01-30T14:57:09;12.30;99.90
46976;DHT22;32724;51.094;6.996;2024-01-30T14:59:35;12.30;99.90
46976;DHT22;32724;51.094;6.996;2024-01-30T15:02:00;12.30;99.90
46976;DHT22;32724;51.094;6.996;2024-01-30T15:04:26;12.30;99.90
46976;DHT22;32724;51.094;6.996;2024-01-30T15:06:53;12.20;99.90
46976;DHT22;32724;51.094;6.996;2024-01-30T15:09:19;12.20;99.90
46976;DHT22;32724;51.094;6.996;2024-01-30T15:11:46;12.10;99.90
46976;DHT22;32724;51.094;6.996;2024-01-30T15:14:12;12.10;99.90
46976;DHT22;32724;51.094;6.996;2024-01-30T15:16:42;12.10;99.90
46976;DHT22;32724;51.094;6.996;2024-01-30T15:19:08;12.10;99.90
46976;DHT22;32724;51.094;6.996;2024-01-30T15:21:33;12.10;99.90
46976;DHT22;32724;51.094;6.996;2024-01-30T15:23:59;12.10;99.90
46976;DHT22;32724;51.094;6.996;2024-01-30T15:26:25;12.10;99.90
46976;DHT22;32724;51.094;6.996;2024-01-30T15:28:51;12.10;99.90
46976;DHT22;32724;51.094;6.996;2024-01-30T15:31:17;12.00;99.90
46976;DHT22;32724;51.094;6.996;2024-01-30T15:33:42;12.00;99.90